ePrivacy and GPDR Cookie Consent by Cookie Consent
EmailTwitter


Surface observations / France / LFBO (07630)

Regions: Quebec | Canada | USA | Europe | France | UK | Elsewhere
Station
Display
Info & Location for LFBO (07630) | Help decoding METAR

Weather Conditions observed on 2023/02/02 at 18:00 UTC at TOULOUSE/BLAGNAC, FR (LFBO)

Temperature: 7.0 Celsius.

Dewpoint: 1.0 Celsius.

Relative Humidity: 66%

Winds: Northwest at 9 km/h or 5 knots.

Mean Sea level Pressure: 103.40 kilopascals.

Coded METAR:

LFBO 021800Z AUTO 31005KT CAVOK 07/01 Q1034 NOSIG=